sensor_id;sensor_type;location;lat;lon;timestamp;P1;durP1;ratioP1;P2;durP2;ratioP2
81896;SDS011;71360;43.506;1.500;2023-08-06T00:01:47;4.07;;;1.40;;
81896;SDS011;71360;43.506;1.500;2023-08-06T00:04:13;4.00;;;1.40;;
81896;SDS011;71360;43.506;1.500;2023-08-06T00:06:38;5.85;;;1.60;;
81896;SDS011;71360;43.506;1.500;2023-08-06T00:09:04;3.90;;;1.30;;
81896;SDS011;71360;43.506;1.500;2023-08-06T00:11:29;3.53;;;1.30;;
81896;SDS011;71360;43.506;1.500;2023-08-06T00:13:55;3.93;;;1.30;;
81896;SDS011;71360;43.506;1.500;2023-08-06T00:16:20;4.25;;;1.40;;
81896;SDS011;71360;43.506;1.500;2023-08-06T00:18:45;4.23;;;1.27;;
81896;SDS011;71360;43.506;1.500;2023-08-06T00:21:11;3.60;;;1.40;;
81896;SDS011;71360;43.506;1.500;2023-08-06T00:23:37;4.07;;;1.42;;
81896;SDS011;71360;43.506;1.500;2023-08-06T00:26:03;3.63;;;1.27;;
81896;SDS011;71360;43.506;1.500;2023-08-06T00:28:28;3.70;;;1.20;;
81896;SDS011;71360;43.506;1.500;2023-08-06T00:30:54;4.13;;;1.40;;
81896;SDS011;71360;43.506;1.500;2023-08-06T00:33:22;4.38;;;1.33;;
81896;SDS011;71360;43.506;1.500;2023-08-06T00:35:48;4.45;;;1.40;;
81896;SDS011;71360;43.506;1.500;2023-08-06T00:38:14;3.77;;;1.27;;
81896;SDS011;71360;43.506;1.500;2023-08-06T00:40:40;4.40;;;1.40;;
81896;SDS011;71360;43.506;1.500;2023-08-06T00:43:05;3.10;;;1.20;;
81896;SDS011;71360;43.506;1.500;2023-08-06T00:45:31;3.73;;;1.20;;
81896;SDS011;71360;43.506;1.500;2023-08-06T00:48:01;4.53;;;1.30;;
81896;SDS011;71360;43.506;1.500;2023-08-06T00:50:28;3.65;;;1.30;;
81896;SDS011;71360;43.506;1.500;2023-08-06T00:52:54;3.80;;;1.40;;
81896;SDS011;71360;43.506;1.500;2023-08-06T00:55:19;3.83;;;1.43;;
81896;SDS011;71360;43.506;1.500;2023-08-06T00:57:45;3.40;;;1.35;;
81896;SDS011;71360;43.506;1.500;2023-08-06T01:00:11;3.70;;;1.42;;
81896;SDS011;71360;43.506;1.500;2023-08-06T01:02:37;3.47;;;1.40;;
81896;SDS011;71360;43.506;1.500;2023-08-06T01:05:03;3.55;;;1.30;;
81896;SDS011;71360;43.506;1.500;2023-08-06T01:15:24;3.85;;;1.40;;
81896;SDS011;71360;43.506;1.500;2023-08-06T01:17:55;4.07;;;1.27;;
81896;SDS011;71360;43.506;1.500;2023-08-06T01:20:21;3.83;;;1.40;;
81896;SDS011;71360;43.506;1.500;2023-08-06T01:22:46;3.75;;;1.55;;
81896;SDS011;71360;43.506;1.500;2023-08-06T01:25:12;3.20;;;1.20;;
81896;SDS011;71360;43.506;1.500;2023-08-06T01:27:46;3.92;;;1.40;;
81896;SDS011;71360;43.506;1.500;2023-08-06T01:30:22;3.90;;;1.60;;
81896;SDS011;71360;43.506;1.500;2023-08-06T01:32:53;3.50;;;1.38;;
81896;SDS011;71360;43.506;1.500;2023-08-06T01:35:25;3.95;;;1.40;;
81896;SDS011;71360;43.506;1.500;2023-08-06T01:37:52;4.10;;;1.40;;
81896;SDS011;71360;43.506;1.500;2023-08-06T01:40:19;3.42;;;1.40;;
81896;SDS011;71360;43.506;1.500;2023-08-06T01:42:44;3.73;;;1.40;;
81896;SDS011;71360;43.506;1.500;2023-08-06T01:45:10;3.70;;;1.30;;
81896;SDS011;71360;43.506;1.500;2023-08-06T01:47:35;3.33;;;1.23;;
81896;SDS011;71360;43.506;1.500;2023-08-06T01:50:01;4.25;;;1.50;;
81896;SDS011;71360;43.506;1.500;2023-08-06T01:52:27;4.43;;;1.50;;
81896;SDS011;71360;43.506;1.500;2023-08-06T01:54:53;4.10;;;1.53;;
81896;SDS011;71360;43.506;1.500;2023-08-06T01:57:19;4.00;;;1.50;;
81896;SDS011;71360;43.506;1.500;2023-08-06T01:59:44;4.50;;;1.60;;
81896;SDS011;71360;43.506;1.500;2023-08-06T02:02:10;4.87;;;1.60;;
81896;SDS011;71360;43.506;1.500;2023-08-06T02:04:35;3.53;;;1.20;;
81896;SDS011;71360;43.506;1.500;2023-08-06T02:07:01;4.10;;;1.47;;
81896;SDS011;71360;43.506;1.500;2023-08-06T02:09:26;3.72;;;1.40;;
81896;SDS011;71360;43.506;1.500;2023-08-06T02:11:52;3.90;;;1.33;;
81896;SDS011;71360;43.506;1.500;2023-08-06T02:14:17;3.90;;;1.40;;
81896;SDS011;71360;43.506;1.500;2023-08-06T02:16:43;4.33;;;1.63;;
81896;SDS011;71360;43.506;1.500;2023-08-06T02:19:08;3.97;;;1.58;;
81896;SDS011;71360;43.506;1.500;2023-08-06T02:21:33;4.17;;;1.60;;
81896;SDS011;71360;43.506;1.500;2023-08-06T02:23:59;5.10;;;1.40;;
81896;SDS011;71360;43.506;1.500;2023-08-06T02:26:24;3.67;;;1.33;;
81896;SDS011;71360;43.506;1.500;2023-08-06T02:28:50;3.80;;;1.20;;
81896;SDS011;71360;43.506;1.500;2023-08-06T02:31:15;4.57;;;1.43;;
81896;SDS011;71360;43.506;1.500;2023-08-06T02:33:41;5.03;;;1.73;;
81896;SDS011;71360;43.506;1.500;2023-08-06T02:36:06;4.00;;;1.30;;
81896;SDS011;71360;43.506;1.500;2023-08-06T02:38:32;4.93;;;1.40;;
81896;SDS011;71360;43.506;1.500;2023-08-06T02:40:57;5.03;;;1.63;;
81896;SDS011;71360;43.506;1.500;2023-08-06T02:43:23;4.50;;;1.27;;
81896;SDS011;71360;43.506;1.500;2023-08-06T02:45:48;5.07;;;1.60;;
81896;SDS011;71360;43.506;1.500;2023-08-06T02:48:14;3.80;;;1.37;;
81896;SDS011;71360;43.506;1.500;2023-08-06T02:50:40;4.60;;;1.50;;
81896;SDS011;71360;43.506;1.500;2023-08-06T02:53:06;4.18;;;1.50;;
81896;SDS011;71360;43.506;1.500;2023-08-06T02:55:32;4.18;;;1.50;;
81896;SDS011;71360;43.506;1.500;2023-08-06T02:57:59;4.75;;;1.38;;
81896;SDS011;71360;43.506;1.500;2023-08-06T03:00:25;5.55;;;1.40;;
81896;SDS011;71360;43.506;1.500;2023-08-06T03:02:51;4.73;;;1.60;;
81896;SDS011;71360;43.506;1.500;2023-08-06T03:05:17;5.03;;;1.33;;
81896;SDS011;71360;43.506;1.500;2023-08-06T03:07:43;5.43;;;1.60;;
81896;SDS011;71360;43.506;1.500;2023-08-06T03:10:08;3.73;;;1.30;;
81896;SDS011;71360;43.506;1.500;2023-08-06T03:12:34;3.90;;;1.40;;
81896;SDS011;71360;43.506;1.500;2023-08-06T03:14:59;5.20;;;1.33;;
81896;SDS011;71360;43.506;1.500;2023-08-06T03:17:25;5.85;;;1.35;;
81896;SDS011;71360;43.506;1.500;2023-08-06T03:19:50;5.23;;;1.40;;
81896;SDS011;71360;43.506;1.500;2023-08-06T03:22:16;4.20;;;1.30;;
81896;SDS011;71360;43.506;1.500;2023-08-06T03:24:41;4.88;;;1.50;;
81896;SDS011;71360;43.506;1.500;2023-08-06T03:27:07;5.17;;;1.60;;
81896;SDS011;71360;43.506;1.500;2023-08-06T03:29:32;5.17;;;1.50;;
81896;SDS011;71360;43.506;1.500;2023-08-06T03:31:58;4.55;;;1.48;;
81896;SDS011;71360;43.506;1.500;2023-08-06T03:34:23;4.77;;;1.50;;
81896;SDS011;71360;43.506;1.500;2023-08-06T03:36:49;5.03;;;1.30;;
81896;SDS011;71360;43.506;1.500;2023-08-06T03:39:14;4.40;;;1.27;;
81896;SDS011;71360;43.506;1.500;2023-08-06T03:41:40;4.53;;;1.23;;
81896;SDS011;71360;43.506;1.500;2023-08-06T03:44:05;4.67;;;1.40;;
81896;SDS011;71360;43.506;1.500;2023-08-06T03:46:31;4.88;;;1.45;;
81896;SDS011;71360;43.506;1.500;2023-08-06T03:48:59;5.53;;;1.48;;
81896;SDS011;71360;43.506;1.500;2023-08-06T03:51:25;4.40;;;1.30;;
81896;SDS011;71360;43.506;1.500;2023-08-06T03:53:51;5.28;;;1.40;;
81896;SDS011;71360;43.506;1.500;2023-08-06T03:56:16;5.03;;;1.30;;
81896;SDS011;71360;43.506;1.500;2023-08-06T03:58:42;5.03;;;1.47;;
81896;SDS011;71360;43.506;1.500;2023-08-06T04:01:07;5.87;;;1.50;;
81896;SDS011;71360;43.506;1.500;2023-08-06T04:03:33;4.97;;;1.50;;
81896;SDS011;71360;43.506;1.500;2023-08-06T04:05:59;4.47;;;1.57;;
81896;SDS011;71360;43.506;1.500;2023-08-06T04:08:24;5.27;;;1.40;;
81896;SDS011;71360;43.506;1.500;2023-08-06T04:10:53;4.63;;;1.30;;
81896;SDS011;71360;43.506;1.500;2023-08-06T04:13:18;4.80;;;1.40;;
81896;SDS011;71360;43.506;1.500;2023-08-06T04:15:44;4.67;;;1.60;;
81896;SDS011;71360;43.506;1.500;2023-08-06T04:18:09;5.68;;;1.63;;
81896;SDS011;71360;43.506;1.500;2023-08-06T04:20:35;4.63;;;1.27;;
81896;SDS011;71360;43.506;1.500;2023-08-06T04:23:07;5.07;;;1.42;;
81896;SDS011;71360;43.506;1.500;2023-08-06T04:25:33;4.27;;;1.40;;
81896;SDS011;71360;43.506;1.500;2023-08-06T04:27:58;4.60;;;1.20;;
81896;SDS011;71360;43.506;1.500;2023-08-06T04:30:24;5.75;;;1.50;;
81896;SDS011;71360;43.506;1.500;2023-08-06T04:32:49;5.13;;;1.40;;
81896;SDS011;71360;43.506;1.500;2023-08-06T04:35:15;6.00;;;1.40;;
81896;SDS011;71360;43.506;1.500;2023-08-06T04:37:41;4.83;;;1.30;;
81896;SDS011;71360;43.506;1.500;2023-08-06T04:40:06;5.40;;;1.40;;
81896;SDS011;71360;43.506;1.500;2023-08-06T04:42:32;4.38;;;1.40;;
81896;SDS011;71360;43.506;1.500;2023-08-06T04:44:58;4.57;;;1.67;;
81896;SDS011;71360;43.506;1.500;2023-08-06T04:47:23;6.13;;;1.60;;
81896;SDS011;71360;43.506;1.500;2023-08-06T04:49:50;5.05;;;1.50;;
81896;SDS011;71360;43.506;1.500;2023-08-06T04:52:16;5.80;;;1.47;;
81896;SDS011;71360;43.506;1.500;2023-08-06T04:54:43;5.53;;;1.43;;
81896;SDS011;71360;43.506;1.500;2023-08-06T04:57:08;5.50;;;1.50;;
81896;SDS011;71360;43.506;1.500;2023-08-06T04:59:34;5.97;;;1.50;;
81896;SDS011;71360;43.506;1.500;2023-08-06T05:01:59;4.70;;;1.40;;
81896;SDS011;71360;43.506;1.500;2023-08-06T05:04:25;5.57;;;1.43;;
81896;SDS011;71360;43.506;1.500;2023-08-06T05:06:50;5.60;;;1.30;;
81896;SDS011;71360;43.506;1.500;2023-08-06T05:09:16;5.60;;;1.42;;
81896;SDS011;71360;43.506;1.500;2023-08-06T05:11:41;5.73;;;1.60;;
81896;SDS011;71360;43.506;1.500;2023-08-06T05:14:07;5.00;;;1.40;;
81896;SDS011;71360;43.506;1.500;2023-08-06T05:16:32;6.20;;;1.50;;
81896;SDS011;71360;43.506;1.500;2023-08-06T05:18:57;6.10;;;1.53;;
81896;SDS011;71360;43.506;1.500;2023-08-06T05:21:23;4.43;;;1.30;;
81896;SDS011;71360;43.506;1.500;2023-08-06T05:23:48;4.57;;;1.40;;
81896;SDS011;71360;43.506;1.500;2023-08-06T05:26:14;4.97;;;1.40;;
81896;SDS011;71360;43.506;1.500;2023-08-06T05:28:43;5.68;;;1.30;;
81896;SDS011;71360;43.506;1.500;2023-08-06T05:31:09;4.63;;;1.40;;
81896;SDS011;71360;43.506;1.500;2023-08-06T05:33:34;5.07;;;1.57;;
81896;SDS011;71360;43.506;1.500;2023-08-06T05:36:00;4.60;;;1.27;;
81896;SDS011;71360;43.506;1.500;2023-08-06T05:38:25;5.32;;;1.20;;
81896;SDS011;71360;43.506;1.500;2023-08-06T05:40:51;4.63;;;1.25;;
81896;SDS011;71360;43.506;1.500;2023-08-06T05:43:17;5.13;;;1.40;;
81896;SDS011;71360;43.506;1.500;2023-08-06T05:45:45;4.37;;;1.20;;
81896;SDS011;71360;43.506;1.500;2023-08-06T05:48:11;4.35;;;1.27;;
81896;SDS011;71360;43.506;1.500;2023-08-06T05:50:37;5.45;;;1.35;;
81896;SDS011;71360;43.506;1.500;2023-08-06T05:53:03;5.87;;;1.40;;
81896;SDS011;71360;43.506;1.500;2023-08-06T05:55:28;5.57;;;1.37;;
81896;SDS011;71360;43.506;1.500;2023-08-06T05:57:54;6.07;;;1.30;;
81896;SDS011;71360;43.506;1.500;2023-08-06T06:00:20;4.93;;;1.40;;
81896;SDS011;71360;43.506;1.500;2023-08-06T06:02:46;5.07;;;1.48;;
81896;SDS011;71360;43.506;1.500;2023-08-06T06:05:11;5.93;;;1.43;;
81896;SDS011;71360;43.506;1.500;2023-08-06T06:07:37;5.03;;;1.30;;
81896;SDS011;71360;43.506;1.500;2023-08-06T06:10:02;4.85;;;1.40;;
81896;SDS011;71360;43.506;1.500;2023-08-06T06:12:28;7.47;;;1.50;;
81896;SDS011;71360;43.506;1.500;2023-08-06T06:14:53;6.10;;;1.30;;
81896;SDS011;71360;43.506;1.500;2023-08-06T06:17:19;5.90;;;1.42;;
81896;SDS011;71360;43.506;1.500;2023-08-06T06:19:44;5.37;;;1.40;;
81896;SDS011;71360;43.506;1.500;2023-08-06T06:22:10;5.73;;;1.47;;
81896;SDS011;71360;43.506;1.500;2023-08-06T06:24:35;7.90;;;1.70;;
81896;SDS011;71360;43.506;1.500;2023-08-06T06:27:01;6.00;;;1.60;;
81896;SDS011;71360;43.506;1.500;2023-08-06T06:29:26;7.13;;;1.70;;
81896;SDS011;71360;43.506;1.500;2023-08-06T06:31:51;7.27;;;1.40;;
81896;SDS011;71360;43.506;1.500;2023-08-06T06:34:17;8.93;;;1.60;;
81896;SDS011;71360;43.506;1.500;2023-08-06T06:36:42;6.85;;;1.50;;
81896;SDS011;71360;43.506;1.500;2023-08-06T06:39:08;5.47;;;1.20;;
81896;SDS011;71360;43.506;1.500;2023-08-06T06:41:33;9.47;;;1.80;;
81896;SDS011;71360;43.506;1.500;2023-08-06T06:43:59;11.37;;;2.03;;
81896;SDS011;71360;43.506;1.500;2023-08-06T06:46:24;6.18;;;1.77;;
81896;SDS011;71360;43.506;1.500;2023-08-06T06:48:50;7.83;;;1.60;;
81896;SDS011;71360;43.506;1.500;2023-08-06T06:51:15;7.30;;;1.47;;
81896;SDS011;71360;43.506;1.500;2023-08-06T06:53:41;9.57;;;1.45;;
81896;SDS011;71360;43.506;1.500;2023-08-06T06:56:06;6.57;;;1.60;;
81896;SDS011;71360;43.506;1.500;2023-08-06T06:58:32;8.00;;;1.40;;
81896;SDS011;71360;43.506;1.500;2023-08-06T07:00:58;5.80;;;1.42;;
81896;SDS011;71360;43.506;1.500;2023-08-06T07:03:23;6.60;;;1.33;;
81896;SDS011;71360;43.506;1.500;2023-08-06T07:05:49;6.97;;;1.48;;
81896;SDS011;71360;43.506;1.500;2023-08-06T07:08:15;4.87;;;1.30;;
81896;SDS011;71360;43.506;1.500;2023-08-06T07:10:40;5.32;;;1.30;;
81896;SDS011;71360;43.506;1.500;2023-08-06T07:13:06;7.43;;;1.60;;
81896;SDS011;71360;43.506;1.500;2023-08-06T07:15:32;7.73;;;1.67;;
81896;SDS011;71360;43.506;1.500;2023-08-06T07:17:58;6.13;;;1.43;;
81896;SDS011;71360;43.506;1.500;2023-08-06T07:20:23;6.25;;;1.25;;
81896;SDS011;71360;43.506;1.500;2023-08-06T07:22:49;5.93;;;1.37;;
81896;SDS011;71360;43.506;1.500;2023-08-06T07:25:15;6.88;;;1.30;;
81896;SDS011;71360;43.506;1.500;2023-08-06T07:27:41;6.82;;;1.45;;
81896;SDS011;71360;43.506;1.500;2023-08-06T07:30:07;4.83;;;1.20;;
81896;SDS011;71360;43.506;1.500;2023-08-06T07:32:33;5.93;;;1.40;;
81896;SDS011;71360;43.506;1.500;2023-08-06T07:34:59;8.70;;;1.50;;
81896;SDS011;71360;43.506;1.500;2023-08-06T07:37:27;7.37;;;1.30;;
81896;SDS011;71360;43.506;1.500;2023-08-06T07:39:54;5.25;;;1.40;;
81896;SDS011;71360;43.506;1.500;2023-08-06T07:42:20;9.85;;;1.30;;
81896;SDS011;71360;43.506;1.500;2023-08-06T07:44:50;5.90;;;1.38;;
81896;SDS011;71360;43.506;1.500;2023-08-06T07:47:24;5.63;;;1.30;;
81896;SDS011;71360;43.506;1.500;2023-08-06T07:49:50;5.87;;;1.30;;
81896;SDS011;71360;43.506;1.500;2023-08-06T07:52:16;6.68;;;1.50;;
81896;SDS011;71360;43.506;1.500;2023-08-06T07:54:41;5.70;;;1.53;;
81896;SDS011;71360;43.506;1.500;2023-08-06T07:57:07;5.10;;;1.40;;
81896;SDS011;71360;43.506;1.500;2023-08-06T07:59:32;5.37;;;1.40;;
81896;SDS011;71360;43.506;1.500;2023-08-06T08:01:58;6.63;;;1.30;;
81896;SDS011;71360;43.506;1.500;2023-08-06T08:04:24;6.55;;;1.30;;
81896;SDS011;71360;43.506;1.500;2023-08-06T08:06:50;7.38;;;1.50;;
81896;SDS011;71360;43.506;1.500;2023-08-06T08:09:16;5.03;;;1.50;;
81896;SDS011;71360;43.506;1.500;2023-08-06T08:11:41;5.65;;;1.30;;
81896;SDS011;71360;43.506;1.500;2023-08-06T08:14:07;6.45;;;1.40;;
81896;SDS011;71360;43.506;1.500;2023-08-06T08:16:33;5.77;;;1.50;;
81896;SDS011;71360;43.506;1.500;2023-08-06T08:18:59;7.30;;;1.50;;
81896;SDS011;71360;43.506;1.500;2023-08-06T08:21:25;6.05;;;1.48;;
81896;SDS011;71360;43.506;1.500;2023-08-06T08:23:51;7.83;;;1.50;;
81896;SDS011;71360;43.506;1.500;2023-08-06T08:26:17;6.70;;;1.50;;
81896;SDS011;71360;43.506;1.500;2023-08-06T08:28:43;5.57;;;1.30;;
81896;SDS011;71360;43.506;1.500;2023-08-06T08:31:09;5.33;;;1.63;;
81896;SDS011;71360;43.506;1.500;2023-08-06T08:33:35;7.47;;;1.75;;
81896;SDS011;71360;43.506;1.500;2023-08-06T08:36:01;5.85;;;1.40;;
81896;SDS011;71360;43.506;1.500;2023-08-06T08:38:27;5.67;;;1.30;;
81896;SDS011;71360;43.506;1.500;2023-08-06T08:40:53;6.53;;;1.40;;
81896;SDS011;71360;43.506;1.500;2023-08-06T08:43:22;4.00;;;1.17;;
81896;SDS011;71360;43.506;1.500;2023-08-06T08:45:51;6.35;;;1.27;;
81896;SDS011;71360;43.506;1.500;2023-08-06T08:48:20;6.78;;;1.40;;
81896;SDS011;71360;43.506;1.500;2023-08-06T08:50:47;5.80;;;1.50;;
81896;SDS011;71360;43.506;1.500;2023-08-06T08:53:14;5.75;;;1.63;;
81896;SDS011;71360;43.506;1.500;2023-08-06T08:55:41;4.97;;;1.35;;
81896;SDS011;71360;43.506;1.500;2023-08-06T08:58:08;4.65;;;1.17;;
81896;SDS011;71360;43.506;1.500;2023-08-06T09:00:33;6.03;;;1.70;;
81896;SDS011;71360;43.506;1.500;2023-08-06T09:03:00;5.20;;;1.20;;
81896;SDS011;71360;43.506;1.500;2023-08-06T09:05:28;5.78;;;1.30;;
81896;SDS011;71360;43.506;1.500;2023-08-06T09:07:56;4.90;;;1.30;;
81896;SDS011;71360;43.506;1.500;2023-08-06T09:10:29;6.15;;;1.42;;
81896;SDS011;71360;43.506;1.500;2023-08-06T09:12:56;7.78;;;1.38;;
81896;SDS011;71360;43.506;1.500;2023-08-06T09:15:26;6.78;;;1.50;;
81896;SDS011;71360;43.506;1.500;2023-08-06T09:17:52;6.13;;;1.30;;
81896;SDS011;71360;43.506;1.500;2023-08-06T09:20:19;5.53;;;1.25;;
81896;SDS011;71360;43.506;1.500;2023-08-06T09:22:45;6.50;;;1.40;;
81896;SDS011;71360;43.506;1.500;2023-08-06T09:25:13;7.38;;;1.23;;
81896;SDS011;71360;43.506;1.500;2023-08-06T09:27:48;5.78;;;1.20;;
81896;SDS011;71360;43.506;1.500;2023-08-06T09:30:25;4.83;;;1.20;;
81896;SDS011;71360;43.506;1.500;2023-08-06T09:32:57;5.82;;;1.35;;
81896;SDS011;71360;43.506;1.500;2023-08-06T09:35:23;5.97;;;1.48;;
81896;SDS011;71360;43.506;1.500;2023-08-06T09:37:48;7.53;;;1.23;;
81896;SDS011;71360;43.506;1.500;2023-08-06T09:40:24;8.90;;;1.58;;
81896;SDS011;71360;43.506;1.500;2023-08-06T09:42:51;6.72;;;1.60;;
81896;SDS011;71360;43.506;1.500;2023-08-06T09:45:17;5.67;;;1.33;;
81896;SDS011;71360;43.506;1.500;2023-08-06T09:47:42;5.50;;;1.37;;
81896;SDS011;71360;43.506;1.500;2023-08-06T09:50:17;7.17;;;1.40;;
81896;SDS011;71360;43.506;1.500;2023-08-06T09:52:44;7.43;;;1.38;;
81896;SDS011;71360;43.506;1.500;2023-08-06T09:55:13;9.43;;;2.37;;
81896;SDS011;71360;43.506;1.500;2023-08-06T09:57:42;10.02;;;2.60;;
81896;SDS011;71360;43.506;1.500;2023-08-06T10:00:08;12.13;;;2.47;;
81896;SDS011;71360;43.506;1.500;2023-08-06T10:02:37;10.75;;;2.60;;
81896;SDS011;71360;43.506;1.500;2023-08-06T10:05:04;17.60;;;3.10;;
81896;SDS011;71360;43.506;1.500;2023-08-06T10:07:30;29.00;;;5.00;;
81896;SDS011;71360;43.506;1.500;2023-08-06T10:09:56;15.38;;;3.75;;
81896;SDS011;71360;43.506;1.500;2023-08-06T10:12:23;13.50;;;3.50;;
81896;SDS011;71360;43.506;1.500;2023-08-06T10:14:51;13.10;;;3.50;;
81896;SDS011;71360;43.506;1.500;2023-08-06T10:17:22;19.35;;;5.05;;
81896;SDS011;71360;43.506;1.500;2023-08-06T10:19:49;17.17;;;3.90;;
81896;SDS011;71360;43.506;1.500;2023-08-06T10:22:15;15.27;;;3.80;;
81896;SDS011;71360;43.506;1.500;2023-08-06T10:25:00;17.50;;;3.70;;
81896;SDS011;71360;43.506;1.500;2023-08-06T10:27:31;14.38;;;3.67;;
81896;SDS011;71360;43.506;1.500;2023-08-06T10:32:48;14.83;;;5.47;;
81896;SDS011;71360;43.506;1.500;2023-08-06T10:38:09;17.42;;;4.65;;
81896;SDS011;71360;43.506;1.500;2023-08-06T10:40:40;15.25;;;4.95;;
81896;SDS011;71360;43.506;1.500;2023-08-06T10:43:07;23.70;;;7.68;;
81896;SDS011;71360;43.506;1.500;2023-08-06T10:45:34;26.40;;;8.57;;
81896;SDS011;71360;43.506;1.500;2023-08-06T10:48:00;25.67;;;8.13;;
81896;SDS011;71360;43.506;1.500;2023-08-06T10:50:26;24.10;;;7.93;;
81896;SDS011;71360;43.506;1.500;2023-08-06T10:52:51;22.15;;;7.45;;
81896;SDS011;71360;43.506;1.500;2023-08-06T10:55:24;21.55;;;7.45;;
81896;SDS011;71360;43.506;1.500;2023-08-06T10:57:51;21.17;;;6.50;;
81896;SDS011;71360;43.506;1.500;2023-08-06T11:00:16;19.55;;;6.38;;
81896;SDS011;71360;43.506;1.500;2023-08-06T11:02:42;21.07;;;6.90;;
81896;SDS011;71360;43.506;1.500;2023-08-06T11:05:09;18.77;;;5.78;;
81896;SDS011;71360;43.506;1.500;2023-08-06T11:07:35;17.65;;;5.72;;
81896;SDS011;71360;43.506;1.500;2023-08-06T11:10:02;18.52;;;5.43;;
81896;SDS011;71360;43.506;1.500;2023-08-06T11:12:38;16.88;;;5.60;;
81896;SDS011;71360;43.506;1.500;2023-08-06T11:15:03;16.30;;;5.30;;
81896;SDS011;71360;43.506;1.500;2023-08-06T11:17:30;14.10;;;5.10;;
81896;SDS011;71360;43.506;1.500;2023-08-06T11:20:00;14.23;;;4.90;;
81896;SDS011;71360;43.506;1.500;2023-08-06T11:22:29;14.18;;;4.80;;
81896;SDS011;71360;43.506;1.500;2023-08-06T11:24:55;18.70;;;5.43;;
81896;SDS011;71360;43.506;1.500;2023-08-06T11:27:20;15.27;;;4.53;;
81896;SDS011;71360;43.506;1.500;2023-08-06T11:29:46;16.35;;;4.80;;
81896;SDS011;71360;43.506;1.500;2023-08-06T11:32:11;21.30;;;4.60;;
81896;SDS011;71360;43.506;1.500;2023-08-06T11:34:39;15.52;;;4.60;;
81896;SDS011;71360;43.506;1.500;2023-08-06T11:37:06;19.03;;;4.40;;
81896;SDS011;71360;43.506;1.500;2023-08-06T11:39:35;15.95;;;4.43;;
81896;SDS011;71360;43.506;1.500;2023-08-06T11:42:04;16.13;;;4.20;;
81896;SDS011;71360;43.506;1.500;2023-08-06T11:44:31;14.05;;;4.30;;
81896;SDS011;71360;43.506;1.500;2023-08-06T11:46:58;14.32;;;4.30;;
81896;SDS011;71360;43.506;1.500;2023-08-06T11:49:39;15.60;;;3.60;;
81896;SDS011;71360;43.506;1.500;2023-08-06T11:54:36;12.80;;;3.83;;
81896;SDS011;71360;43.506;1.500;2023-08-06T11:57:02;14.55;;;3.78;;
81896;SDS011;71360;43.506;1.500;2023-08-06T11:59:30;12.23;;;3.72;;
81896;SDS011;71360;43.506;1.500;2023-08-06T12:01:55;13.00;;;3.77;;
81896;SDS011;71360;43.506;1.500;2023-08-06T12:04:21;10.80;;;3.40;;
81896;SDS011;71360;43.506;1.500;2023-08-06T12:06:46;14.02;;;3.78;;
81896;SDS011;71360;43.506;1.500;2023-08-06T12:09:12;13.47;;;3.87;;
81896;SDS011;71360;43.506;1.500;2023-08-06T12:11:37;12.90;;;3.70;;
81896;SDS011;71360;43.506;1.500;2023-08-06T12:14:02;10.63;;;3.33;;
81896;SDS011;71360;43.506;1.500;2023-08-06T12:16:28;13.43;;;3.38;;
81896;SDS011;71360;43.506;1.500;2023-08-06T12:18:53;14.00;;;3.57;;
81896;SDS011;71360;43.506;1.500;2023-08-06T12:21:19;17.47;;;3.60;;
81896;SDS011;71360;43.506;1.500;2023-08-06T12:23:44;12.27;;;2.97;;
81896;SDS011;71360;43.506;1.500;2023-08-06T12:26:10;15.18;;;3.60;;
81896;SDS011;71360;43.506;1.500;2023-08-06T12:28:35;8.53;;;2.73;;
81896;SDS011;71360;43.506;1.500;2023-08-06T12:31:00;10.77;;;3.30;;
81896;SDS011;71360;43.506;1.500;2023-08-06T12:33:26;12.80;;;3.20;;
81896;SDS011;71360;43.506;1.500;2023-08-06T12:35:51;13.05;;;3.17;;
81896;SDS011;71360;43.506;1.500;2023-08-06T12:38:20;12.77;;;3.35;;
81896;SDS011;71360;43.506;1.500;2023-08-06T12:40:45;8.70;;;2.83;;
81896;SDS011;71360;43.506;1.500;2023-08-06T12:43:11;10.53;;;2.87;;
81896;SDS011;71360;43.506;1.500;2023-08-06T12:45:36;11.85;;;3.30;;
81896;SDS011;71360;43.506;1.500;2023-08-06T12:48:02;11.00;;;3.20;;
81896;SDS011;71360;43.506;1.500;2023-08-06T12:50:28;11.45;;;3.03;;
81896;SDS011;71360;43.506;1.500;2023-08-06T12:52:54;10.63;;;2.88;;
81896;SDS011;71360;43.506;1.500;2023-08-06T12:55:19;10.57;;;2.80;;
81896;SDS011;71360;43.506;1.500;2023-08-06T12:57:45;9.47;;;2.60;;
81896;SDS011;71360;43.506;1.500;2023-08-06T13:00:10;8.82;;;2.50;;
81896;SDS011;71360;43.506;1.500;2023-08-06T13:02:36;9.00;;;2.80;;
81896;SDS011;71360;43.506;1.500;2023-08-06T13:05:01;8.43;;;2.30;;
81896;SDS011;71360;43.506;1.500;2023-08-06T13:07:30;9.77;;;2.33;;
81896;SDS011;71360;43.506;1.500;2023-08-06T13:09:56;7.15;;;2.30;;
81896;SDS011;71360;43.506;1.500;2023-08-06T13:12:21;11.47;;;2.50;;
81896;SDS011;71360;43.506;1.500;2023-08-06T13:14:48;10.95;;;2.78;;
81896;SDS011;71360;43.506;1.500;2023-08-06T13:17:13;7.40;;;2.33;;
81896;SDS011;71360;43.506;1.500;2023-08-06T13:19:39;9.23;;;2.25;;
81896;SDS011;71360;43.506;1.500;2023-08-06T13:22:04;12.20;;;2.67;;
81896;SDS011;71360;43.506;1.500;2023-08-06T13:24:33;7.85;;;2.20;;
81896;SDS011;71360;43.506;1.500;2023-08-06T13:26:59;7.60;;;2.30;;
81896;SDS011;71360;43.506;1.500;2023-08-06T13:29:25;7.95;;;2.25;;
81896;SDS011;71360;43.506;1.500;2023-08-06T13:31:52;9.20;;;2.50;;
81896;SDS011;71360;43.506;1.500;2023-08-06T13:34:17;7.77;;;2.60;;
81896;SDS011;71360;43.506;1.500;2023-08-06T13:36:43;9.03;;;2.47;;
81896;SDS011;71360;43.506;1.500;2023-08-06T13:39:08;8.05;;;2.47;;
81896;SDS011;71360;43.506;1.500;2023-08-06T13:41:34;8.80;;;2.53;;
81896;SDS011;71360;43.506;1.500;2023-08-06T13:43:59;7.97;;;2.30;;
81896;SDS011;71360;43.506;1.500;2023-08-06T13:46:25;8.27;;;2.30;;
81896;SDS011;71360;43.506;1.500;2023-08-06T13:48:50;8.20;;;2.00;;
81896;SDS011;71360;43.506;1.500;2023-08-06T13:51:16;7.40;;;2.10;;
81896;SDS011;71360;43.506;1.500;2023-08-06T13:53:41;7.67;;;2.10;;
81896;SDS011;71360;43.506;1.500;2023-08-06T13:56:07;7.53;;;2.38;;
81896;SDS011;71360;43.506;1.500;2023-08-06T13:58:35;6.53;;;2.20;;
81896;SDS011;71360;43.506;1.500;2023-08-06T14:01:00;9.53;;;2.23;;
81896;SDS011;71360;43.506;1.500;2023-08-06T14:03:25;11.37;;;2.10;;
81896;SDS011;71360;43.506;1.500;2023-08-06T14:05:51;8.50;;;2.20;;
81896;SDS011;71360;43.506;1.500;2023-08-06T14:08:17;10.13;;;1.93;;
81896;SDS011;71360;43.506;1.500;2023-08-06T14:10:45;9.13;;;2.20;;
81896;SDS011;71360;43.506;1.500;2023-08-06T14:13:11;6.57;;;1.90;;
81896;SDS011;71360;43.506;1.500;2023-08-06T14:15:37;9.18;;;1.92;;
81896;SDS011;71360;43.506;1.500;2023-08-06T14:18:05;7.25;;;2.00;;
81896;SDS011;71360;43.506;1.500;2023-08-06T14:20:30;9.48;;;2.10;;
81896;SDS011;71360;43.506;1.500;2023-08-06T14:22:56;8.10;;;1.93;;
81896;SDS011;71360;43.506;1.500;2023-08-06T14:25:22;6.70;;;1.80;;
81896;SDS011;71360;43.506;1.500;2023-08-06T14:27:47;5.23;;;1.80;;
81896;SDS011;71360;43.506;1.500;2023-08-06T14:30:13;7.53;;;1.90;;
81896;SDS011;71360;43.506;1.500;2023-08-06T14:32:38;8.20;;;1.80;;
81896;SDS011;71360;43.506;1.500;2023-08-06T14:35:04;6.47;;;1.88;;
81896;SDS011;71360;43.506;1.500;2023-08-06T14:37:30;5.68;;;1.60;;
81896;SDS011;71360;43.506;1.500;2023-08-06T14:39:55;8.33;;;2.10;;
81896;SDS011;71360;43.506;1.500;2023-08-06T14:42:21;6.43;;;1.83;;
81896;SDS011;71360;43.506;1.500;2023-08-06T14:44:46;6.57;;;2.00;;
81896;SDS011;71360;43.506;1.500;2023-08-06T14:47:12;6.63;;;1.70;;
81896;SDS011;71360;43.506;1.500;2023-08-06T14:49:37;8.53;;;2.10;;
81896;SDS011;71360;43.506;1.500;2023-08-06T14:52:03;6.65;;;1.65;;
81896;SDS011;71360;43.506;1.500;2023-08-06T14:54:29;5.75;;;1.85;;
81896;SDS011;71360;43.506;1.500;2023-08-06T14:56:55;6.53;;;1.83;;